createdAt,value
2022-08-20T00:02:17.481Z,100750.66
2022-08-20T00:04:45.685Z,100751.03
2022-08-20T00:07:15.605Z,100753.44
2022-08-20T00:09:44.380Z,100755.09
2022-08-20T00:12:17.243Z,100764.53
2022-08-20T00:14:49.061Z,100772.13
2022-08-20T00:17:20.467Z,100767.25
2022-08-20T00:19:49.873Z,100770.28
2022-08-20T00:22:20.416Z,100762.34
2022-08-20T00:24:49.476Z,100757.69
2022-08-20T00:27:21.220Z,100756.34
2022-08-20T00:29:49.138Z,100759.00
2022-08-20T00:32:20.374Z,100761.59
2022-08-20T00:34:48.587Z,100763.25
2022-08-20T00:37:17.976Z,100767.53
2022-08-20T00:39:46.548Z,100767.47
2022-08-20T00:42:15.502Z,100766.94
2022-08-20T00:44:47.540Z,100764.06
2022-08-20T00:47:16.662Z,100762.91
2022-08-20T00:49:45.678Z,100764.47
2022-08-20T00:52:20.045Z,100767.56
2022-08-20T00:54:59.593Z,100765.97
2022-08-20T00:57:58.983Z,100771.94
2022-08-20T01:00:37.787Z,100769.69
2022-08-20T01:03:12.223Z,100778.41
2022-08-20T01:05:44.872Z,100779.81
2022-08-20T01:08:17.091Z,100774.97
2022-08-20T01:10:49.070Z,100775.88
2022-08-20T01:13:24.457Z,100783.59
2022-08-20T01:15:56.353Z,100784.19
2022-08-20T01:18:28.558Z,100791.69
2022-08-20T01:21:00.426Z,100792.81
2022-08-20T01:23:48.917Z,100790.06
2022-08-20T01:26:25.806Z,100787.66
2022-08-20T01:29:08.820Z,100788.19
2022-08-20T01:31:39.242Z,100781.25
2022-08-20T01:34:10.666Z,100785.66
2022-08-20T01:36:46.359Z,100788.66
2022-08-20T01:39:22.774Z,100787.63
2022-08-20T01:41:57.223Z,100803.97
2022-08-20T01:44:26.576Z,100808.94
2022-08-20T01:46:57.777Z,100806.25
2022-08-20T01:49:32.342Z,100805.72
2022-08-20T01:52:08.417Z,100807.78
2022-08-20T01:54:38.240Z,100816.63
2022-08-20T01:57:06.477Z,100821.09
2022-08-20T01:59:35.445Z,100818.63
2022-08-20T02:02:05.408Z,100815.69
2022-08-20T02:04:34.753Z,100814.81
2022-08-20T02:07:06.699Z,100812.88
2022-08-20T02:09:37.964Z,100821.03
2022-08-20T02:12:09.380Z,100824.38
2022-08-20T02:14:47.039Z,100813.94
2022-08-20T02:17:17.541Z,100815.44
2022-08-20T02:19:56.303Z,100823.25
2022-08-20T02:22:34.650Z,100826.44
2022-08-20T02:25:06.931Z,100830.88
2022-08-20T02:27:37.681Z,100831.78
2022-08-20T02:30:12.120Z,100837.59
2022-08-20T02:32:57.915Z,100847.31
2022-08-20T02:35:27.405Z,100850.16
2022-08-20T02:37:56.779Z,100849.31
2022-08-20T02:40:30.970Z,100850.00
2022-08-20T02:43:01.963Z,100848.91
2022-08-20T02:45:37.921Z,100846.75
2022-08-20T02:48:05.959Z,100839.44
2022-08-20T02:50:34.610Z,100844.50
2022-08-20T02:53:02.889Z,100842.38
2022-08-20T02:55:31.550Z,100842.06
2022-08-20T02:58:01.060Z,100828.38
2022-08-20T03:00:37.964Z,100833.41
2022-08-20T03:03:11.070Z,100837.69
2022-08-20T03:05:41.519Z,100835.00
2022-08-20T03:08:13.935Z,100834.16
2022-08-20T03:10:46.655Z,100839.47
2022-08-20T03:13:23.912Z,100837.19
2022-08-20T03:15:58.843Z,100833.41
2022-08-20T03:18:36.198Z,100840.97
2022-08-20T03:21:07.138Z,100851.47
2022-08-20T03:23:40.465Z,100843.72
2022-08-20T03:26:13.194Z,100840.41
2022-08-20T03:28:42.599Z,100835.44
2022-08-20T03:31:12.661Z,100845.13
2022-08-20T03:33:52.754Z,100845.91
2022-08-20T03:36:28.888Z,100859.25
2022-08-20T03:38:59.301Z,100863.47
2022-08-20T03:41:29.321Z,100861.44
2022-08-20T03:43:57.589Z,100861.09
2022-08-20T03:46:27.141Z,100867.09
2022-08-20T03:48:59.833Z,100856.91
2022-08-20T03:51:31.849Z,100857.09
2022-08-20T03:54:21.614Z,100858.66
2022-08-20T03:56:49.506Z,100864.09
2022-08-20T03:59:17.340Z,100867.91
2022-08-20T04:01:46.765Z,100866.66
2022-08-20T04:04:16.266Z,100869.88
2022-08-20T04:06:47.185Z,100874.69
2022-08-20T04:09:15.773Z,100878.38
2022-08-20T04:11:45.075Z,100880.25
2022-08-20T04:14:18.624Z,100889.94
2022-08-20T04:16:49.565Z,100883.31
2022-08-20T04:19:17.616Z,100884.38
2022-08-20T04:21:48.708Z,100886.63
2022-08-20T04:24:21.927Z,100882.28
2022-08-20T04:27:02.928Z,100876.78
2022-08-20T04:29:35.341Z,100883.94
2022-08-20T04:32:06.667Z,100881.28
2022-08-20T04:34:37.110Z,100892.06
2022-08-20T04:37:16.916Z,100887.97
2022-08-20T04:40:10.729Z,100885.34
2022-08-20T04:42:41.295Z,100884.06
2022-08-20T04:45:12.833Z,100885.63
2022-08-20T04:47:42.062Z,100881.69
2022-08-20T04:50:13.010Z,100872.13
2022-08-20T04:52:41.685Z,100873.34
2022-08-20T04:55:11.565Z,100872.19
2022-08-20T04:57:41.838Z,100872.97
2022-08-20T05:00:15.631Z,100875.44
2022-08-20T05:02:45.003Z,100875.63
2022-08-20T05:05:14.612Z,100870.28
2022-08-20T05:07:46.262Z,100873.25
2022-08-20T05:10:20.240Z,100873.03
2022-08-20T05:12:56.786Z,100866.56
2022-08-20T05:15:26.523Z,100863.94
2022-08-20T05:18:04.060Z,100869.56
2022-08-20T05:20:36.120Z,100867.22
2022-08-20T05:23:04.773Z,100857.28
2022-08-20T05:25:34.403Z,100864.41
2022-08-20T05:28:10.052Z,100868.53
2022-08-20T05:30:42.216Z,100860.59
2022-08-20T05:33:14.926Z,100859.91
2022-08-20T05:35:43.649Z,100863.81
2022-08-20T05:38:15.691Z,100860.16
2022-08-20T05:40:43.663Z,100861.28
2022-08-20T05:43:12.877Z,100868.22
2022-08-20T05:45:45.181Z,100870.63
2022-08-20T05:48:17.373Z,100871.72
2022-08-20T05:50:49.439Z,100872.28
2022-08-20T05:53:21.146Z,100867.34
2022-08-20T05:55:52.163Z,100864.63
2022-08-20T05:58:25.237Z,100869.03
2022-08-20T06:00:55.037Z,100860.63
2022-08-20T06:03:42.057Z,100866.38
2022-08-20T06:06:18.063Z,100866.38
2022-08-20T06:08:58.583Z,100861.94
2022-08-20T06:11:28.013Z,100859.84
2022-08-20T06:13:59.230Z,100853.78
2022-08-20T06:16:29.521Z,100855.44
2022-08-20T06:18:58.813Z,100856.53
2022-08-20T06:21:26.994Z,100861.75
2022-08-20T06:23:58.653Z,100862.34
2022-08-20T06:26:34.715Z,100862.38
2022-08-20T06:29:06.058Z,100860.97
2022-08-20T06:31:35.243Z,100863.72
2022-08-20T06:34:04.826Z,100864.28
2022-08-20T06:36:36.828Z,100869.25
2022-08-20T06:39:04.625Z,100862.63
2022-08-20T06:41:36.032Z,100867.66
2022-08-20T06:44:07.772Z,100869.59
2022-08-20T06:46:38.233Z,100865.19
2022-08-20T06:49:09.040Z,100868.22
2022-08-20T06:51:41.319Z,100865.22
2022-08-20T06:54:09.649Z,100869.88
2022-08-20T06:56:38.304Z,100866.81
2022-08-20T06:59:06.597Z,100873.97
2022-08-20T07:01:36.211Z,100866.50
2022-08-20T07:04:07.849Z,100870.13
2022-08-20T07:06:39.192Z,100866.53
2022-08-20T07:09:08.969Z,100867.88
2022-08-20T07:11:37.648Z,100879.69
2022-08-20T07:14:06.997Z,100871.97
2022-08-20T07:16:36.818Z,100875.22
2022-08-20T07:19:05.888Z,100872.31
2022-08-20T07:21:35.271Z,100872.91
2022-08-20T07:24:04.208Z,100864.91
2022-08-20T07:26:35.339Z,100859.69
2022-08-20T07:29:04.284Z,100869.34
2022-08-20T07:31:52.953Z,100869.88
2022-08-20T07:34:21.701Z,100873.72
2022-08-20T07:36:51.090Z,100869.31
2022-08-20T07:39:20.465Z,100866.56
2022-08-20T07:42:03.748Z,100870.41
2022-08-20T07:44:31.462Z,100879.75
2022-08-20T07:47:00.065Z,100873.72
2022-08-20T07:49:28.981Z,100871.22
2022-08-20T07:51:58.580Z,100876.47
2022-08-20T07:54:30.429Z,100880.31
2022-08-20T07:57:05.659Z,100884.69
2022-08-20T07:59:36.137Z,100885.47
2022-08-20T08:02:05.563Z,100897.22
2022-08-20T08:04:33.845Z,100888.97
2022-08-20T08:07:02.588Z,100888.94
2022-08-20T08:09:30.735Z,100881.66
2022-08-20T08:12:03.170Z,100879.84
2022-08-20T08:14:35.376Z,100877.63
2022-08-20T08:17:05.769Z,100868.97
2022-08-20T08:19:38.967Z,100868.38
2022-08-20T08:22:12.783Z,100878.16
2022-08-20T08:24:56.616Z,100868.69
2022-08-20T08:27:27.139Z,100864.69
2022-08-20T08:29:55.894Z,100868.22
2022-08-20T08:32:25.055Z,100870.19
2022-08-20T08:34:54.308Z,100868.56
2022-08-20T08:37:22.922Z,100861.63
2022-08-20T08:39:51.693Z,100859.78
2022-08-20T08:42:46.034Z,100847.19
2022-08-20T08:45:19.486Z,100855.22
2022-08-20T08:47:48.067Z,100844.13
2022-08-20T08:50:43.829Z,100846.72
2022-08-20T08:53:20.991Z,100837.50
2022-08-20T08:55:50.166Z,100839.44
2022-08-20T08:58:31.411Z,100836.06
2022-08-20T09:01:53.886Z,100830.31
2022-08-20T09:04:26.246Z,100824.25
2022-08-20T09:06:56.177Z,100831.91
2022-08-20T09:09:46.703Z,100825.94
2022-08-20T09:12:19.511Z,100833.56
2022-08-20T09:14:51.149Z,100834.50
2022-08-20T09:17:23.695Z,100832.13
2022-08-20T09:19:52.608Z,100831.22
2022-08-20T09:22:26.115Z,100834.88
2022-08-20T09:24:56.880Z,100829.25
2022-08-20T09:27:25.701Z,100834.16
2022-08-20T09:29:54.589Z,100828.88
2022-08-20T09:32:24.240Z,100835.78
2022-08-20T09:35:00.199Z,100827.00
2022-08-20T09:37:36.630Z,100830.50
2022-08-20T09:40:09.095Z,100830.34
2022-08-20T09:42:41.701Z,100837.84
2022-08-20T09:45:12.370Z,100835.06
2022-08-20T09:47:56.280Z,100836.28
2022-08-20T09:50:47.571Z,100832.63
2022-08-20T09:53:27.890Z,100832.69
2022-08-20T09:55:57.895Z,100825.56
2022-08-20T09:58:54.067Z,100819.31
2022-08-20T10:01:23.563Z,100820.59
2022-08-20T10:03:52.835Z,100808.44
2022-08-20T10:06:21.030Z,100814.88
2022-08-20T10:08:50.088Z,100814.44
2022-08-20T10:11:26.137Z,100808.38
2022-08-20T10:14:00.281Z,100803.47
2022-08-20T10:16:28.743Z,100802.09
2022-08-20T10:18:58.462Z,100793.75
2022-08-20T10:21:26.582Z,100788.75
2022-08-20T10:23:55.402Z,100788.41
2022-08-20T10:26:23.735Z,100785.59
2022-08-20T10:28:54.550Z,100798.53
2022-08-20T10:31:22.817Z,100792.97
2022-08-20T10:33:52.223Z,100788.50
2022-08-20T10:36:21.497Z,100798.25
2022-08-20T10:38:49.633Z,100792.72
2022-08-20T10:41:17.948Z,100792.34
2022-08-20T10:43:46.876Z,100803.59
2022-08-20T10:46:15.637Z,100797.78
2022-08-20T10:48:45.604Z,100792.72
2022-08-20T10:51:13.633Z,100800.56
2022-08-20T10:53:42.741Z,100787.69
2022-08-20T10:56:15.518Z,100779.34
2022-08-20T10:58:43.720Z,100771.94
2022-08-20T11:01:31.455Z,100785.06
2022-08-20T11:04:03.473Z,100785.25
2022-08-20T11:06:33.785Z,100770.84
2022-08-20T11:09:03.961Z,100763.16
2022-08-20T11:11:38.366Z,100776.50
2022-08-20T11:14:08.350Z,100774.53
2022-08-20T11:16:38.959Z,100768.38
2022-08-20T11:19:07.526Z,100771.34
2022-08-20T11:21:39.151Z,100771.59
2022-08-20T11:24:07.915Z,100779.34
2022-08-20T11:26:36.731Z,100779.63
2022-08-20T11:29:06.175Z,100773.41
2022-08-20T11:31:36.810Z,100770.03
2022-08-20T11:34:10.737Z,100770.84
2022-08-20T11:36:44.949Z,100766.19
2022-08-20T11:39:14.377Z,100765.13
2022-08-20T11:41:45.821Z,100758.69
2022-08-20T11:44:20.060Z,100755.41
2022-08-20T11:46:50.056Z,100755.16
2022-08-20T11:49:19.645Z,100752.19
2022-08-20T11:51:49.932Z,100759.31
2022-08-20T11:54:18.357Z,100758.91
2022-08-20T11:56:46.757Z,100750.78
2022-08-20T11:59:14.618Z,100751.16
2022-08-20T12:02:01.967Z,100745.91
2022-08-20T12:04:33.557Z,100742.22
2022-08-20T12:07:15.075Z,100745.94
2022-08-20T12:09:51.071Z,100744.97
2022-08-20T12:12:24.376Z,100744.47
2022-08-20T12:14:57.292Z,100737.44
2022-08-20T12:17:29.460Z,100734.97
2022-08-20T12:19:59.688Z,100725.19
2022-08-20T12:22:28.049Z,100713.38
2022-08-20T12:24:57.812Z,100707.31
2022-08-20T12:27:29.488Z,100700.28
2022-08-20T12:30:00.566Z,100701.69
2022-08-20T12:32:31.404Z,100692.28
2022-08-20T12:35:00.317Z,100685.66
2022-08-20T12:37:31.055Z,100688.28
2022-08-20T12:40:02.634Z,100676.81
2022-08-20T12:42:30.813Z,100679.56
2022-08-20T12:45:00.816Z,100682.59
2022-08-20T12:47:36.221Z,100685.06
2022-08-20T12:50:10.174Z,100682.31
2022-08-20T12:52:44.189Z,100690.75
2022-08-20T12:55:16.058Z,100702.53
2022-08-20T12:57:50.193Z,100703.66
2022-08-20T13:00:22.741Z,100706.97
2022-08-20T13:02:56.240Z,100726.22
2022-08-20T13:05:24.685Z,100727.94
2022-08-20T13:07:53.983Z,100729.25
2022-08-20T13:10:29.643Z,100732.66
2022-08-20T13:12:59.672Z,100721.16
2022-08-20T13:15:27.746Z,100722.50
2022-08-20T13:17:59.537Z,100733.16
2022-08-20T13:20:34.659Z,100729.78
2022-08-20T13:23:06.965Z,100714.91
2022-08-20T13:25:35.647Z,100712.94
2022-08-20T13:28:05.390Z,100719.16
2022-08-20T13:30:38.797Z,100726.72
2022-08-20T13:33:07.067Z,100738.25
2022-08-20T13:35:36.022Z,100730.94
2022-08-20T13:38:04.184Z,100753.44
2022-08-20T13:40:33.500Z,100759.94
2022-08-20T13:43:06.795Z,100770.63
2022-08-20T13:45:41.870Z,100771.13
2022-08-20T13:48:14.797Z,100766.41
2022-08-20T13:50:47.256Z,100777.59
2022-08-20T13:53:17.259Z,100786.50
2022-08-20T13:55:49.779Z,100787.19
2022-08-20T13:58:19.328Z,100801.44
2022-08-20T14:00:53.929Z,100814.22
2022-08-20T14:03:25.460Z,100824.91
2022-08-20T14:05:55.222Z,100844.94
2022-08-20T14:08:24.685Z,100841.25
2022-08-20T14:10:56.690Z,100851.97
2022-08-20T14:13:26.966Z,100843.47
2022-08-20T14:15:59.635Z,100863.81
2022-08-20T14:18:28.832Z,100879.75
2022-08-20T14:20:57.047Z,100900.50
2022-08-20T14:23:26.916Z,100911.25
2022-08-20T14:25:55.679Z,100897.19
2022-08-20T14:28:25.349Z,100911.59
2022-08-20T14:30:57.960Z,100879.66
2022-08-20T14:33:27.764Z,100888.84
2022-08-20T14:35:57.312Z,100886.13
2022-08-20T14:38:25.838Z,100881.53
2022-08-20T14:40:55.962Z,100888.03
2022-08-20T14:43:28.611Z,100908.94
2022-08-20T14:45:57.740Z,100919.31
2022-08-20T14:48:28.478Z,100923.47
2022-08-20T14:50:56.874Z,100937.66
2022-08-20T14:53:26.368Z,100942.50
2022-08-20T14:55:54.648Z,100934.59
2022-08-20T14:58:23.644Z,100915.66
2022-08-20T15:00:55.966Z,100903.91
2022-08-20T15:03:30.585Z,100879.63
2022-08-20T15:05:59.286Z,100876.16
2022-08-20T15:08:30.144Z,100864.91
2022-08-20T15:10:58.735Z,100853.72
2022-08-20T15:13:31.504Z,100854.25
2022-08-20T15:16:00.748Z,100845.91
2022-08-20T15:18:29.409Z,100852.91
2022-08-20T15:21:01.297Z,100856.41
2022-08-20T15:23:30.302Z,100855.22
2022-08-20T15:25:58.982Z,100857.00
2022-08-20T15:28:28.685Z,100859.47
2022-08-20T15:30:56.845Z,100870.22
2022-08-20T15:33:25.621Z,100873.53
2022-08-20T15:35:55.783Z,100871.41
2022-08-20T15:38:26.144Z,100877.16
2022-08-20T15:40:58.527Z,100867.72
2022-08-20T15:43:28.020Z,100864.84
2022-08-20T15:46:00.785Z,100878.56
2022-08-20T15:48:38.536Z,100883.03
2022-08-20T15:51:43.679Z,100882.47
2022-08-20T15:54:27.995Z,100871.16
2022-08-20T15:57:26.960Z,100875.53
2022-08-20T16:00:22.959Z,100877.94
2022-08-20T16:03:07.785Z,100887.75
2022-08-20T16:06:03.946Z,100893.63
2022-08-20T16:09:16.933Z,100893.84
2022-08-20T16:12:13.761Z,100891.47
2022-08-20T16:14:47.598Z,100893.78
2022-08-20T16:17:59.625Z,100894.06
2022-08-20T16:20:48.270Z,100900.25
2022-08-20T16:23:29.482Z,100894.78
2022-08-20T16:26:14.078Z,100895.19
2022-08-20T16:29:20.930Z,100891.97
2022-08-20T16:32:29.097Z,100893.00
2022-08-20T16:35:36.199Z,100899.00
2022-08-20T16:38:21.307Z,100901.44
2022-08-20T16:41:22.647Z,100903.91
2022-08-20T16:44:21.225Z,100907.53
2022-08-20T16:47:01.072Z,100910.53
2022-08-20T16:50:12.260Z,100916.16
2022-08-20T16:52:50.659Z,100913.22
2022-08-20T16:55:24.581Z,100914.19
2022-08-20T16:57:54.272Z,100918.06
2022-08-20T17:00:45.239Z,100910.94
2022-08-20T17:03:33.562Z,100921.41
2022-08-20T17:06:39.951Z,100913.53
2022-08-20T17:09:21.032Z,100922.88
2022-08-20T17:12:29.925Z,100911.03
2022-08-20T17:15:06.681Z,100907.78
2022-08-20T17:17:47.293Z,100900.66
2022-08-20T17:20:22.820Z,100901.13
2022-08-20T17:22:58.429Z,100905.84
2022-08-20T17:25:39.529Z,100899.00
2022-08-20T17:28:19.059Z,100894.19
2022-08-20T17:33:40.060Z,100882.31
2022-08-20T17:36:21.274Z,100877.56
2022-08-20T17:39:06.555Z,100879.56
2022-08-20T17:41:47.106Z,100875.38
2022-08-20T17:44:32.906Z,100868.69
2022-08-20T17:47:12.513Z,100867.72
2022-08-20T17:49:53.274Z,100880.81
2022-08-20T17:52:53.494Z,100874.38
2022-08-20T17:55:21.867Z,100872.06
2022-08-20T17:57:58.590Z,100877.53
2022-08-20T18:00:35.983Z,100882.53
2022-08-20T18:03:27.983Z,100886.31
2022-08-20T18:06:09.949Z,100900.59
2022-08-20T18:08:53.142Z,100904.81
2022-08-20T18:11:43.220Z,100904.97
2022-08-20T18:14:34.972Z,100907.38
2022-08-20T18:17:48.023Z,100906.19
2022-08-20T18:20:46.139Z,100913.44
2022-08-20T18:23:47.596Z,100913.31
2022-08-20T18:26:29.789Z,100909.31
2022-08-20T18:29:14.742Z,100919.31
2022-08-20T18:32:00.399Z,100919.41
2022-08-20T18:34:39.160Z,100916.72
2022-08-20T18:37:18.824Z,100922.72
2022-08-20T18:39:50.753Z,100917.66
2022-08-20T18:42:37.587Z,100917.75
2022-08-20T18:45:09.377Z,100912.34
2022-08-20T18:47:57.718Z,100916.44
2022-08-20T18:50:53.006Z,100910.50
2022-08-20T18:53:36.199Z,100908.47
2022-08-20T18:56:17.451Z,100905.09
2022-08-20T18:59:21.168Z,100911.59
2022-08-20T19:01:52.810Z,100904.59
2022-08-20T19:04:32.966Z,100898.09
2022-08-20T19:07:06.609Z,100901.75
2022-08-20T19:10:20.391Z,100896.59
2022-08-20T19:13:58.038Z,100894.06
2022-08-20T19:16:54.500Z,100888.63
2022-08-20T19:19:33.302Z,100890.78
2022-08-20T19:22:12.734Z,100891.84
2022-08-20T19:24:52.312Z,100890.75
2022-08-20T19:27:30.830Z,100882.59
2022-08-20T19:30:01.874Z,100879.59
2022-08-20T19:32:37.249Z,100883.63
2022-08-20T19:35:11.950Z,100883.50
2022-08-20T19:37:51.097Z,100883.78
2022-08-20T19:40:39.294Z,100885.78
2022-08-20T19:43:21.868Z,100886.00
2022-08-20T19:45:54.644Z,100876.78
2022-08-20T19:48:42.700Z,100885.16
2022-08-20T19:51:45.795Z,100882.47
2022-08-20T19:54:27.566Z,100885.16
2022-08-20T19:57:11.166Z,100893.50
2022-08-20T20:00:19.664Z,100892.28
2022-08-20T20:02:56.251Z,100895.03
2022-08-20T20:05:24.851Z,100893.00
2022-08-20T20:08:04.942Z,100896.63
2022-08-20T20:10:37.288Z,100889.56
2022-08-20T20:13:12.475Z,100887.13
2022-08-20T20:15:41.689Z,100889.00
2022-08-20T20:18:11.862Z,100888.28
2022-08-20T20:20:57.790Z,100880.56
2022-08-20T20:23:45.694Z,100890.06
2022-08-20T20:26:20.362Z,100888.28
2022-08-20T20:29:21.839Z,100882.69
2022-08-20T20:31:54.702Z,100883.81
2022-08-20T20:34:30.029Z,100875.44
2022-08-20T20:37:14.472Z,100881.94
2022-08-20T20:40:38.532Z,100876.66
2022-08-20T20:43:24.217Z,100871.44
2022-08-20T20:46:18.909Z,100865.09
2022-08-20T20:48:48.819Z,100869.19
2022-08-20T20:51:35.672Z,100867.56
2022-08-20T20:54:07.220Z,100868.66
2022-08-20T20:56:41.318Z,100874.19
2022-08-20T20:59:13.941Z,100878.63
2022-08-20T21:01:50.103Z,100876.25
2022-08-20T21:04:23.140Z,100881.94
2022-08-20T21:06:54.326Z,100880.59
2022-08-20T21:09:25.251Z,100879.47
2022-08-20T21:11:54.306Z,100879.53
2022-08-20T21:14:22.826Z,100883.72
2022-08-20T21:16:53.332Z,100880.81
2022-08-20T21:19:21.921Z,100882.97
2022-08-20T21:21:50.968Z,100882.19
2022-08-20T21:24:19.857Z,100873.56
2022-08-20T21:26:50.162Z,100872.41
2022-08-20T21:29:31.684Z,100874.31
2022-08-20T21:32:01.842Z,100879.31
2022-08-20T21:34:30.820Z,100872.66
2022-08-20T21:36:58.969Z,100874.31
2022-08-20T21:39:30.087Z,100882.34
2022-08-20T21:42:03.178Z,100884.69
2022-08-20T21:44:35.208Z,100876.56
2022-08-20T21:47:04.935Z,100886.25
2022-08-20T21:49:35.666Z,100885.13
2022-08-20T21:52:05.784Z,100878.09
2022-08-20T21:54:37.121Z,100885.03
2022-08-20T21:57:09.230Z,100878.28
2022-08-20T21:59:38.701Z,100871.00
2022-08-20T22:02:06.693Z,100866.59
2022-08-20T22:04:35.753Z,100867.13
2022-08-20T22:07:05.592Z,100863.31
2022-08-20T22:09:34.191Z,100858.69
2022-08-20T22:12:04.144Z,100864.66
2022-08-20T22:14:32.858Z,100852.66
2022-08-20T22:17:02.529Z,100854.13
2022-08-20T22:19:30.734Z,100847.75
2022-08-20T22:21:59.926Z,100851.28
2022-08-20T22:24:29.395Z,100852.22
2022-08-20T22:26:58.180Z,100854.19
2022-08-20T22:29:26.965Z,100850.84
2022-08-20T22:31:55.225Z,100845.28
2022-08-20T22:34:24.904Z,100846.47
2022-08-20T22:36:54.627Z,100845.56
2022-08-20T22:39:22.645Z,100843.56
2022-08-20T22:41:50.803Z,100856.59
2022-08-20T22:44:20.680Z,100859.16
2022-08-20T22:46:55.808Z,100863.69
2022-08-20T22:49:28.527Z,100864.72
2022-08-20T22:51:57.287Z,100850.56
2022-08-20T22:54:26.347Z,100865.81
2022-08-20T22:56:55.229Z,100862.22
2022-08-20T22:59:25.280Z,100856.97
2022-08-20T23:01:56.131Z,100853.75
2022-08-20T23:04:30.359Z,100859.09
2022-08-20T23:07:00.545Z,100859.78
2022-08-20T23:09:30.251Z,100858.72
2022-08-20T23:11:59.710Z,100858.09
2022-08-20T23:14:27.709Z,100857.44
2022-08-20T23:17:04.536Z,100862.97
2022-08-20T23:19:33.323Z,100863.69
2022-08-20T23:22:01.803Z,100861.13
2022-08-20T23:24:30.746Z,100863.81
2022-08-20T23:26:58.655Z,100861.91
2022-08-20T23:29:27.334Z,100858.00
2022-08-20T23:31:57.031Z,100853.41
2022-08-20T23:34:26.613Z,100864.16
2022-08-20T23:36:57.136Z,100861.50
2022-08-20T23:39:27.052Z,100861.91
2022-08-20T23:42:04.316Z,100861.72
2022-08-20T23:44:32.601Z,100852.50
2022-08-20T23:47:02.959Z,100857.06
2022-08-20T23:49:32.203Z,100854.38
2022-08-20T23:52:01.667Z,100849.09
2022-08-20T23:54:31.621Z,100853.03
2022-08-20T23:57:00.703Z,100856.13
2022-08-20T23:59:30.674Z,100850.16
